sensor_id;sensor_type;location;lat;lon;timestamp;P1;durP1;ratioP1;P2;durP2;ratioP2
77522;SDS011;66637;-29.628;-49.938;2023-03-14T00:01:43;39.00;;;4.78;;
77522;SDS011;66637;-29.628;-49.938;2023-03-14T00:04:41;41.97;;;4.70;;
77522;SDS011;66637;-29.628;-49.938;2023-03-14T00:07:23;40.15;;;5.43;;
77522;SDS011;66637;-29.628;-49.938;2023-03-14T00:10:08;42.38;;;4.95;;
77522;SDS011;66637;-29.628;-49.938;2023-03-14T00:12:47;38.83;;;4.57;;
77522;SDS011;66637;-29.628;-49.938;2023-03-14T00:15:38;53.83;;;5.70;;
77522;SDS011;66637;-29.628;-49.938;2023-03-14T00:18:21;42.33;;;4.82;;
77522;SDS011;66637;-29.628;-49.938;2023-03-14T00:21:15;36.55;;;4.45;;
77522;SDS011;66637;-29.628;-49.938;2023-03-14T00:23:48;33.25;;;4.75;;
77522;SDS011;66637;-29.628;-49.938;2023-03-14T00:26:58;28.92;;;4.20;;
77522;SDS011;66637;-29.628;-49.938;2023-03-14T00:30:06;39.40;;;4.80;;
77522;SDS011;66637;-29.628;-49.938;2023-03-14T00:32:56;48.05;;;4.82;;
77522;SDS011;66637;-29.628;-49.938;2023-03-14T00:35:29;42.50;;;4.20;;
77522;SDS011;66637;-29.628;-49.938;2023-03-14T00:38:14;43.80;;;5.15;;
77522;SDS011;66637;-29.628;-49.938;2023-03-14T00:40:53;31.58;;;4.32;;
77522;SDS011;66637;-29.628;-49.938;2023-03-14T00:46:04;39.50;;;4.95;;
77522;SDS011;66637;-29.628;-49.938;2023-03-14T00:48:49;33.70;;;4.60;;
77522;SDS011;66637;-29.628;-49.938;2023-03-14T00:51:35;48.35;;;4.88;;
77522;SDS011;66637;-29.628;-49.938;2023-03-14T00:54:11;43.38;;;5.10;;
77522;SDS011;66637;-29.628;-49.938;2023-03-14T00:56:56;38.47;;;4.18;;
77522;SDS011;66637;-29.628;-49.938;2023-03-14T00:59:29;39.08;;;4.82;;
77522;SDS011;66637;-29.628;-49.938;2023-03-14T01:02:04;47.72;;;5.32;;
77522;SDS011;66637;-29.628;-49.938;2023-03-14T01:04:47;52.60;;;5.40;;
77522;SDS011;66637;-29.628;-49.938;2023-03-14T01:07:35;48.35;;;5.00;;
77522;SDS011;66637;-29.628;-49.938;2023-03-14T01:10:40;40.80;;;4.93;;
77522;SDS011;66637;-29.628;-49.938;2023-03-14T01:13:28;54.47;;;6.00;;
77522;SDS011;66637;-29.628;-49.938;2023-03-14T01:16:18;42.25;;;5.45;;
77522;SDS011;66637;-29.628;-49.938;2023-03-14T01:18:54;42.80;;;5.10;;
77522;SDS011;66637;-29.628;-49.938;2023-03-14T01:21:42;49.90;;;5.57;;
77522;SDS011;66637;-29.628;-49.938;2023-03-14T01:24:42;37.47;;;5.18;;
77522;SDS011;66637;-29.628;-49.938;2023-03-14T01:27:25;43.25;;;4.82;;
77522;SDS011;66637;-29.628;-49.938;2023-03-14T01:30:04;38.20;;;4.75;;
77522;SDS011;66637;-29.628;-49.938;2023-03-14T01:32:59;39.05;;;5.15;;
77522;SDS011;66637;-29.628;-49.938;2023-03-14T01:35:51;51.65;;;5.85;;
77522;SDS011;66637;-29.628;-49.938;2023-03-14T01:38:51;43.30;;;5.55;;
77522;SDS011;66637;-29.628;-49.938;2023-03-14T01:41:49;47.92;;;5.30;;
77522;SDS011;66637;-29.628;-49.938;2023-03-14T01:44:21;57.83;;;5.97;;
77522;SDS011;66637;-29.628;-49.938;2023-03-14T01:46:59;49.33;;;5.70;;
77522;SDS011;66637;-29.628;-49.938;2023-03-14T01:50:00;51.70;;;5.07;;
77522;SDS011;66637;-29.628;-49.938;2023-03-14T01:52:35;49.42;;;5.50;;
77522;SDS011;66637;-29.628;-49.938;2023-03-14T01:55:31;47.38;;;5.25;;
77522;SDS011;66637;-29.628;-49.938;2023-03-14T01:58:41;55.17;;;5.97;;
77522;SDS011;66637;-29.628;-49.938;2023-03-14T02:01:23;47.45;;;5.57;;
77522;SDS011;66637;-29.628;-49.938;2023-03-14T02:04:01;44.65;;;5.32;;
77522;SDS011;66637;-29.628;-49.938;2023-03-14T02:09:59;44.22;;;5.50;;
77522;SDS011;66637;-29.628;-49.938;2023-03-14T02:12:38;35.47;;;4.60;;
77522;SDS011;66637;-29.628;-49.938;2023-03-14T02:15:29;36.83;;;5.30;;
77522;SDS011;66637;-29.628;-49.938;2023-03-14T02:18:19;31.45;;;4.35;;
77522;SDS011;66637;-29.628;-49.938;2023-03-14T02:21:38;43.80;;;4.60;;
77522;SDS011;66637;-29.628;-49.938;2023-03-14T02:24:38;41.88;;;4.88;;
77522;SDS011;66637;-29.628;-49.938;2023-03-14T02:27:40;37.20;;;4.45;;
77522;SDS011;66637;-29.628;-49.938;2023-03-14T02:30:24;35.83;;;4.72;;
77522;SDS011;66637;-29.628;-49.938;2023-03-14T02:33:15;37.10;;;4.18;;
77522;SDS011;66637;-29.628;-49.938;2023-03-14T02:36:11;51.60;;;5.50;;
77522;SDS011;66637;-29.628;-49.938;2023-03-14T02:39:26;37.75;;;4.10;;
77522;SDS011;66637;-29.628;-49.938;2023-03-14T02:45:54;48.67;;;6.32;;
77522;SDS011;66637;-29.628;-49.938;2023-03-14T02:51:33;48.08;;;5.90;;
77522;SDS011;66637;-29.628;-49.938;2023-03-14T02:54:17;50.17;;;5.90;;
77522;SDS011;66637;-29.628;-49.938;2023-03-14T02:57:29;40.28;;;4.93;;
77522;SDS011;66637;-29.628;-49.938;2023-03-14T03:00:49;46.88;;;5.25;;
77522;SDS011;66637;-29.628;-49.938;2023-03-14T03:03:33;53.05;;;5.30;;
77522;SDS011;66637;-29.628;-49.938;2023-03-14T03:06:16;33.42;;;3.97;;
77522;SDS011;66637;-29.628;-49.938;2023-03-14T03:08:47;40.40;;;5.10;;
77522;SDS011;66637;-29.628;-49.938;2023-03-14T03:11:51;38.20;;;4.63;;
77522;SDS011;66637;-29.628;-49.938;2023-03-14T03:14:55;42.83;;;5.80;;
77522;SDS011;66637;-29.628;-49.938;2023-03-14T03:17:36;48.45;;;4.93;;
77522;SDS011;66637;-29.628;-49.938;2023-03-14T03:20:11;37.63;;;4.25;;
77522;SDS011;66637;-29.628;-49.938;2023-03-14T03:22:45;44.40;;;5.32;;
77522;SDS011;66637;-29.628;-49.938;2023-03-14T03:25:41;43.20;;;4.28;;
77522;SDS011;66637;-29.628;-49.938;2023-03-14T03:28:21;52.70;;;5.60;;
77522;SDS011;66637;-29.628;-49.938;2023-03-14T03:31:08;37.33;;;4.40;;
77522;SDS011;66637;-29.628;-49.938;2023-03-14T03:34:03;44.78;;;5.40;;
77522;SDS011;66637;-29.628;-49.938;2023-03-14T03:36:38;49.42;;;5.47;;
77522;SDS011;66637;-29.628;-49.938;2023-03-14T03:39:26;51.63;;;6.22;;
77522;SDS011;66637;-29.628;-49.938;2023-03-14T03:42:02;49.80;;;6.32;;
77522;SDS011;66637;-29.628;-49.938;2023-03-14T03:44:37;58.55;;;7.15;;
77522;SDS011;66637;-29.628;-49.938;2023-03-14T03:47:08;38.05;;;4.90;;
77522;SDS011;66637;-29.628;-49.938;2023-03-14T03:49:40;34.33;;;4.18;;
77522;SDS011;66637;-29.628;-49.938;2023-03-14T03:52:22;50.83;;;6.40;;
77522;SDS011;66637;-29.628;-49.938;2023-03-14T03:54:54;41.28;;;4.70;;
77522;SDS011;66637;-29.628;-49.938;2023-03-14T03:57:43;50.35;;;6.30;;
77522;SDS011;66637;-29.628;-49.938;2023-03-14T04:00:22;40.10;;;5.22;;
77522;SDS011;66637;-29.628;-49.938;2023-03-14T04:02:55;44.60;;;5.35;;
77522;SDS011;66637;-29.628;-49.938;2023-03-14T04:05:36;52.53;;;5.60;;
77522;SDS011;66637;-29.628;-49.938;2023-03-14T04:08:15;52.17;;;6.13;;
77522;SDS011;66637;-29.628;-49.938;2023-03-14T04:11:31;45.67;;;5.53;;
77522;SDS011;66637;-29.628;-49.938;2023-03-14T04:14:30;31.42;;;4.47;;
77522;SDS011;66637;-29.628;-49.938;2023-03-14T04:17:24;42.25;;;4.45;;
77522;SDS011;66637;-29.628;-49.938;2023-03-14T04:20:16;58.00;;;6.75;;
77522;SDS011;66637;-29.628;-49.938;2023-03-14T04:23:11;54.53;;;6.20;;
77522;SDS011;66637;-29.628;-49.938;2023-03-14T04:26:00;45.70;;;4.75;;
77522;SDS011;66637;-29.628;-49.938;2023-03-14T04:28:54;36.67;;;3.90;;
77522;SDS011;66637;-29.628;-49.938;2023-03-14T04:31:26;19.30;;;2.15;;
77522;SDS011;66637;-29.628;-49.938;2023-03-14T04:34:04;9.45;;;1.25;;
77522;SDS011;66637;-29.628;-49.938;2023-03-14T04:36:51;10.57;;;1.20;;
77522;SDS011;66637;-29.628;-49.938;2023-03-14T04:39:37;11.15;;;1.50;;
77522;SDS011;66637;-29.628;-49.938;2023-03-14T04:42:28;8.23;;;1.50;;
77522;SDS011;66637;-29.628;-49.938;2023-03-14T04:45:22;15.00;;;1.48;;
77522;SDS011;66637;-29.628;-49.938;2023-03-14T04:48:05;9.95;;;1.50;;
77522;SDS011;66637;-29.628;-49.938;2023-03-14T04:51:22;14.70;;;1.40;;
77522;SDS011;66637;-29.628;-49.938;2023-03-14T04:54:00;9.18;;;1.48;;
77522;SDS011;66637;-29.628;-49.938;2023-03-14T04:56:44;10.25;;;1.30;;
77522;SDS011;66637;-29.628;-49.938;2023-03-14T04:59:51;7.60;;;1.17;;
77522;SDS011;66637;-29.628;-49.938;2023-03-14T05:03:06;11.50;;;2.13;;
77522;SDS011;66637;-29.628;-49.938;2023-03-14T05:06:18;9.50;;;1.10;;
77522;SDS011;66637;-29.628;-49.938;2023-03-14T05:12:40;8.70;;;1.25;;
77522;SDS011;66637;-29.628;-49.938;2023-03-14T05:16:02;5.47;;;1.30;;
77522;SDS011;66637;-29.628;-49.938;2023-03-14T05:19:14;8.10;;;1.20;;
77522;SDS011;66637;-29.628;-49.938;2023-03-14T05:22:15;7.32;;;1.30;;
77522;SDS011;66637;-29.628;-49.938;2023-03-14T05:25:13;7.53;;;1.27;;
77522;SDS011;66637;-29.628;-49.938;2023-03-14T05:28:41;9.25;;;1.20;;
77522;SDS011;66637;-29.628;-49.938;2023-03-14T05:31:51;21.80;;;2.83;;
77522;SDS011;66637;-29.628;-49.938;2023-03-14T05:35:07;56.53;;;5.88;;
77522;SDS011;66637;-29.628;-49.938;2023-03-14T05:38:33;51.17;;;5.65;;
77522;SDS011;66637;-29.628;-49.938;2023-03-14T05:41:41;46.15;;;5.55;;
77522;SDS011;66637;-29.628;-49.938;2023-03-14T05:44:43;36.25;;;4.43;;
77522;SDS011;66637;-29.628;-49.938;2023-03-14T05:47:57;28.38;;;3.70;;
77522;SDS011;66637;-29.628;-49.938;2023-03-14T05:51:06;46.85;;;6.22;;
77522;SDS011;66637;-29.628;-49.938;2023-03-14T05:54:05;38.60;;;5.35;;
77522;SDS011;66637;-29.628;-49.938;2023-03-14T05:57:10;43.45;;;4.47;;
77522;SDS011;66637;-29.628;-49.938;2023-03-14T06:00:28;42.17;;;5.20;;
77522;SDS011;66637;-29.628;-49.938;2023-03-14T06:03:58;42.28;;;4.85;;
77522;SDS011;66637;-29.628;-49.938;2023-03-14T06:06:49;38.22;;;4.82;;
77522;SDS011;66637;-29.628;-49.938;2023-03-14T06:09:25;53.70;;;6.72;;
77522;SDS011;66637;-29.628;-49.938;2023-03-14T06:12:20;43.05;;;5.57;;
77522;SDS011;66637;-29.628;-49.938;2023-03-14T06:14:55;44.80;;;5.53;;
77522;SDS011;66637;-29.628;-49.938;2023-03-14T06:17:27;50.70;;;5.97;;
77522;SDS011;66637;-29.628;-49.938;2023-03-14T06:20:15;45.55;;;5.18;;
77522;SDS011;66637;-29.628;-49.938;2023-03-14T06:22:53;33.25;;;4.43;;
77522;SDS011;66637;-29.628;-49.938;2023-03-14T06:25:40;47.33;;;5.65;;
77522;SDS011;66637;-29.628;-49.938;2023-03-14T06:28:28;50.95;;;6.57;;
77522;SDS011;66637;-29.628;-49.938;2023-03-14T06:31:01;42.65;;;7.05;;
77522;SDS011;66637;-29.628;-49.938;2023-03-14T06:33:51;50.72;;;6.78;;
77522;SDS011;66637;-29.628;-49.938;2023-03-14T06:36:31;53.78;;;6.78;;
77522;SDS011;66637;-29.628;-49.938;2023-03-14T06:39:17;46.15;;;6.03;;
77522;SDS011;66637;-29.628;-49.938;2023-03-14T06:42:14;46.58;;;6.05;;
77522;SDS011;66637;-29.628;-49.938;2023-03-14T06:45:00;45.40;;;5.65;;
77522;SDS011;66637;-29.628;-49.938;2023-03-14T06:47:42;39.65;;;5.43;;
77522;SDS011;66637;-29.628;-49.938;2023-03-14T06:50:45;42.63;;;5.82;;
77522;SDS011;66637;-29.628;-49.938;2023-03-14T06:53:19;36.78;;;6.63;;
77522;SDS011;66637;-29.628;-49.938;2023-03-14T06:56:08;48.42;;;6.88;;
77522;SDS011;66637;-29.628;-49.938;2023-03-14T06:59:07;39.90;;;6.78;;
77522;SDS011;66637;-29.628;-49.938;2023-03-14T07:01:39;44.55;;;7.28;;
77522;SDS011;66637;-29.628;-49.938;2023-03-14T07:04:22;40.08;;;6.20;;
77522;SDS011;66637;-29.628;-49.938;2023-03-14T07:07:12;27.23;;;4.70;;
77522;SDS011;66637;-29.628;-49.938;2023-03-14T07:09:45;28.05;;;4.88;;
77522;SDS011;66637;-29.628;-49.938;2023-03-14T07:12:24;27.25;;;4.68;;
77522;SDS011;66637;-29.628;-49.938;2023-03-14T07:15:01;24.10;;;4.15;;
77522;SDS011;66637;-29.628;-49.938;2023-03-14T07:18:04;12.60;;;3.22;;
77522;SDS011;66637;-29.628;-49.938;2023-03-14T07:20:38;16.70;;;3.60;;
77522;SDS011;66637;-29.628;-49.938;2023-03-14T07:23:32;20.83;;;3.42;;
77522;SDS011;66637;-29.628;-49.938;2023-03-14T07:26:05;13.88;;;2.90;;
77522;SDS011;66637;-29.628;-49.938;2023-03-14T07:28:50;8.13;;;2.45;;
77522;SDS011;66637;-29.628;-49.938;2023-03-14T07:32:07;6.18;;;2.25;;
77522;SDS011;66637;-29.628;-49.938;2023-03-14T07:34:49;6.47;;;2.28;;
77522;SDS011;66637;-29.628;-49.938;2023-03-14T07:37:20;11.68;;;2.75;;
77522;SDS011;66637;-29.628;-49.938;2023-03-14T07:39:58;8.90;;;2.40;;
77522;SDS011;66637;-29.628;-49.938;2023-03-14T07:46:02;11.15;;;2.88;;
77522;SDS011;66637;-29.628;-49.938;2023-03-14T07:48:34;9.43;;;2.70;;
77522;SDS011;66637;-29.628;-49.938;2023-03-14T07:51:16;6.38;;;2.50;;
77522;SDS011;66637;-29.628;-49.938;2023-03-14T07:53:47;7.63;;;2.45;;
77522;SDS011;66637;-29.628;-49.938;2023-03-14T07:56:19;8.55;;;3.03;;
77522;SDS011;66637;-29.628;-49.938;2023-03-14T07:59:02;9.77;;;2.60;;
77522;SDS011;66637;-29.628;-49.938;2023-03-14T08:02:23;6.60;;;2.20;;
77522;SDS011;66637;-29.628;-49.938;2023-03-14T08:05:04;7.35;;;1.98;;
77522;SDS011;66637;-29.628;-49.938;2023-03-14T08:08:01;7.45;;;2.55;;
77522;SDS011;66637;-29.628;-49.938;2023-03-14T08:10:43;7.60;;;2.25;;
77522;SDS011;66637;-29.628;-49.938;2023-03-14T08:13:22;9.05;;;2.50;;
77522;SDS011;66637;-29.628;-49.938;2023-03-14T08:16:05;7.88;;;1.92;;
77522;SDS011;66637;-29.628;-49.938;2023-03-14T08:18:53;7.70;;;2.58;;
77522;SDS011;66637;-29.628;-49.938;2023-03-14T08:21:35;8.45;;;2.33;;
77522;SDS011;66637;-29.628;-49.938;2023-03-14T08:24:07;9.02;;;2.20;;
77522;SDS011;66637;-29.628;-49.938;2023-03-14T08:27:08;6.13;;;2.20;;
77522;SDS011;66637;-29.628;-49.938;2023-03-14T08:29:58;7.90;;;2.55;;
77522;SDS011;66637;-29.628;-49.938;2023-03-14T08:32:33;8.50;;;2.38;;
77522;SDS011;66637;-29.628;-49.938;2023-03-14T08:35:41;5.38;;;1.95;;
77522;SDS011;66637;-29.628;-49.938;2023-03-14T08:41:52;5.18;;;2.13;;
77522;SDS011;66637;-29.628;-49.938;2023-03-14T08:44:40;5.25;;;2.17;;
77522;SDS011;66637;-29.628;-49.938;2023-03-14T08:47:19;9.05;;;2.13;;
77522;SDS011;66637;-29.628;-49.938;2023-03-14T08:49:49;7.07;;;2.20;;
77522;SDS011;66637;-29.628;-49.938;2023-03-14T08:52:34;6.57;;;2.25;;
77522;SDS011;66637;-29.628;-49.938;2023-03-14T08:55:05;7.72;;;1.95;;
77522;SDS011;66637;-29.628;-49.938;2023-03-14T08:57:39;6.15;;;1.95;;
77522;SDS011;66637;-29.628;-49.938;2023-03-14T09:00:18;7.72;;;2.20;;
77522;SDS011;66637;-29.628;-49.938;2023-03-14T09:02:59;8.23;;;2.35;;
77522;SDS011;66637;-29.628;-49.938;2023-03-14T09:05:32;7.00;;;2.35;;
77522;SDS011;66637;-29.628;-49.938;2023-03-14T09:08:22;9.93;;;2.63;;
77522;SDS011;66637;-29.628;-49.938;2023-03-14T09:10:54;10.00;;;2.63;;
77522;SDS011;66637;-29.628;-49.938;2023-03-14T09:13:45;6.38;;;2.50;;
77522;SDS011;66637;-29.628;-49.938;2023-03-14T09:19:48;4.80;;;2.22;;
77522;SDS011;66637;-29.628;-49.938;2023-03-14T09:22:36;5.65;;;1.95;;
77522;SDS011;66637;-29.628;-49.938;2023-03-14T09:25:24;7.35;;;2.30;;
77522;SDS011;66637;-29.628;-49.938;2023-03-14T09:28:32;5.30;;;2.03;;
77522;SDS011;66637;-29.628;-49.938;2023-03-14T09:31:16;7.63;;;1.98;;
77522;SDS011;66637;-29.628;-49.938;2023-03-14T09:33:51;8.15;;;1.90;;
77522;SDS011;66637;-29.628;-49.938;2023-03-14T09:36:26;7.07;;;2.10;;
77522;SDS011;66637;-29.628;-49.938;2023-03-14T09:39:02;6.38;;;1.92;;
77522;SDS011;66637;-29.628;-49.938;2023-03-14T09:41:51;4.85;;;1.70;;
77522;SDS011;66637;-29.628;-49.938;2023-03-14T09:45:03;5.50;;;1.60;;
77522;SDS011;66637;-29.628;-49.938;2023-03-14T09:47:55;7.05;;;1.83;;
77522;SDS011;66637;-29.628;-49.938;2023-03-14T09:51:06;3.85;;;1.52;;
77522;SDS011;66637;-29.628;-49.938;2023-03-14T09:53:53;6.00;;;1.50;;
77522;SDS011;66637;-29.628;-49.938;2023-03-14T09:56:43;4.00;;;1.20;;
77522;SDS011;66637;-29.628;-49.938;2023-03-14T09:59:19;4.95;;;1.50;;
77522;SDS011;66637;-29.628;-49.938;2023-03-14T10:02:25;7.35;;;1.40;;
77522;SDS011;66637;-29.628;-49.938;2023-03-14T10:05:40;5.35;;;1.33;;
77522;SDS011;66637;-29.628;-49.938;2023-03-14T10:08:43;6.35;;;1.30;;
77522;SDS011;66637;-29.628;-49.938;2023-03-14T10:11:26;4.30;;;1.30;;
77522;SDS011;66637;-29.628;-49.938;2023-03-14T10:14:16;5.78;;;1.00;;
77522;SDS011;66637;-29.628;-49.938;2023-03-14T10:17:48;7.35;;;1.40;;
77522;SDS011;66637;-29.628;-49.938;2023-03-14T10:29:50;4.13;;;1.20;;
77522;SDS011;66637;-29.628;-49.938;2023-03-14T10:32:54;7.95;;;1.42;;
77522;SDS011;66637;-29.628;-49.938;2023-03-14T10:42:28;7.13;;;1.30;;
77522;SDS011;66637;-29.628;-49.938;2023-03-14T10:45:51;4.47;;;1.30;;
77522;SDS011;66637;-29.628;-49.938;2023-03-14T10:49:05;5.50;;;1.10;;
77522;SDS011;66637;-29.628;-49.938;2023-03-14T10:51:45;5.75;;;1.33;;
77522;SDS011;66637;-29.628;-49.938;2023-03-14T10:54:35;6.45;;;1.35;;
77522;SDS011;66637;-29.628;-49.938;2023-03-14T10:57:46;2.92;;;0.82;;
77522;SDS011;66637;-29.628;-49.938;2023-03-14T11:00:34;5.25;;;1.33;;
77522;SDS011;66637;-29.628;-49.938;2023-03-14T11:07:49;5.60;;;1.52;;
77522;SDS011;66637;-29.628;-49.938;2023-03-14T11:11:14;5.47;;;1.40;;
77522;SDS011;66637;-29.628;-49.938;2023-03-14T11:14:31;7.55;;;1.63;;
77522;SDS011;66637;-29.628;-49.938;2023-03-14T11:17:22;3.80;;;1.20;;
77522;SDS011;66637;-29.628;-49.938;2023-03-14T11:27:55;5.68;;;1.35;;
77522;SDS011;66637;-29.628;-49.938;2023-03-14T11:30:45;5.80;;;1.30;;
77522;SDS011;66637;-29.628;-49.938;2023-03-14T11:33:45;6.80;;;1.40;;
77522;SDS011;66637;-29.628;-49.938;2023-03-14T11:36:41;2.78;;;1.20;;
77522;SDS011;66637;-29.628;-49.938;2023-03-14T11:39:24;5.03;;;1.05;;
77522;SDS011;66637;-29.628;-49.938;2023-03-14T11:42:28;4.97;;;1.08;;
77522;SDS011;66637;-29.628;-49.938;2023-03-14T11:45:25;4.57;;;1.10;;
77522;SDS011;66637;-29.628;-49.938;2023-03-14T11:48:38;18.75;;;2.88;;
77522;SDS011;66637;-29.628;-49.938;2023-03-14T11:51:39;6.93;;;1.00;;
77522;SDS011;66637;-29.628;-49.938;2023-03-14T11:57:36;5.07;;;0.70;;
77522;SDS011;66637;-29.628;-49.938;2023-03-14T12:00:25;6.38;;;0.93;;
77522;SDS011;66637;-29.628;-49.938;2023-03-14T12:06:26;13.65;;;1.73;;
77522;SDS011;66637;-29.628;-49.938;2023-03-14T12:09:24;5.22;;;0.90;;
77522;SDS011;66637;-29.628;-49.938;2023-03-14T12:12:22;3.58;;;0.70;;
77522;SDS011;66637;-29.628;-49.938;2023-03-14T12:15:03;32.28;;;4.50;;
77522;SDS011;66637;-29.628;-49.938;2023-03-14T12:21:49;37.78;;;5.40;;
77522;SDS011;66637;-29.628;-49.938;2023-03-14T12:25:26;24.77;;;4.38;;
77522;SDS011;66637;-29.628;-49.938;2023-03-14T12:28:44;40.85;;;4.80;;
77522;SDS011;66637;-29.628;-49.938;2023-03-14T12:35:57;41.33;;;5.97;;
77522;SDS011;66637;-29.628;-49.938;2023-03-14T12:38:49;22.30;;;3.90;;
77522;SDS011;66637;-29.628;-49.938;2023-03-14T12:41:53;30.55;;;3.70;;
77522;SDS011;66637;-29.628;-49.938;2023-03-14T12:48:30;31.98;;;5.35;;
77522;SDS011;66637;-29.628;-49.938;2023-03-14T12:51:29;37.00;;;5.13;;
77522;SDS011;66637;-29.628;-49.938;2023-03-14T13:01:17;32.42;;;5.13;;
77522;SDS011;66637;-29.628;-49.938;2023-03-14T13:04:15;33.33;;;5.03;;
77522;SDS011;66637;-29.628;-49.938;2023-03-14T13:07:13;38.08;;;6.55;;
77522;SDS011;66637;-29.628;-49.938;2023-03-14T13:11:19;36.65;;;5.22;;
77522;SDS011;66637;-29.628;-49.938;2023-03-14T13:14:16;32.05;;;4.75;;
77522;SDS011;66637;-29.628;-49.938;2023-03-14T13:20:27;26.35;;;3.55;;
77522;SDS011;66637;-29.628;-49.938;2023-03-14T13:23:35;31.73;;;4.88;;
77522;SDS011;66637;-29.628;-49.938;2023-03-14T13:26:47;25.17;;;3.75;;
77522;SDS011;66637;-29.628;-49.938;2023-03-14T13:29:31;33.45;;;5.55;;
77522;SDS011;66637;-29.628;-49.938;2023-03-14T13:32:39;25.40;;;4.28;;
77522;SDS011;66637;-29.628;-49.938;2023-03-14T13:39:22;21.65;;;3.08;;
77522;SDS011;66637;-29.628;-49.938;2023-03-14T13:42:33;26.75;;;3.75;;
77522;SDS011;66637;-29.628;-49.938;2023-03-14T13:45:20;39.10;;;4.60;;
77522;SDS011;66637;-29.628;-49.938;2023-03-14T13:48:08;25.25;;;3.42;;
77522;SDS011;66637;-29.628;-49.938;2023-03-14T13:53:50;21.98;;;3.45;;
77522;SDS011;66637;-29.628;-49.938;2023-03-14T13:56:32;25.45;;;3.80;;
77522;SDS011;66637;-29.628;-49.938;2023-03-14T13:59:24;24.25;;;3.53;;
77522;SDS011;66637;-29.628;-49.938;2023-03-14T14:02:43;35.40;;;4.00;;
77522;SDS011;66637;-29.628;-49.938;2023-03-14T14:05:40;28.02;;;3.72;;
77522;SDS011;66637;-29.628;-49.938;2023-03-14T14:08:40;23.70;;;3.08;;
77522;SDS011;66637;-29.628;-49.938;2023-03-14T14:11:21;23.02;;;3.20;;
77522;SDS011;66637;-29.628;-49.938;2023-03-14T14:17:44;23.05;;;3.35;;
77522;SDS011;66637;-29.628;-49.938;2023-03-14T14:21:08;21.17;;;3.17;;
77522;SDS011;66637;-29.628;-49.938;2023-03-14T14:24:14;34.63;;;3.40;;
77522;SDS011;66637;-29.628;-49.938;2023-03-14T14:30:47;25.77;;;3.43;;
77522;SDS011;66637;-29.628;-49.938;2023-03-14T14:33:56;25.52;;;3.42;;
77522;SDS011;66637;-29.628;-49.938;2023-03-14T14:36:58;25.10;;;3.72;;
77522;SDS011;66637;-29.628;-49.938;2023-03-14T14:40:21;18.70;;;3.20;;
77522;SDS011;66637;-29.628;-49.938;2023-03-14T14:43:15;19.17;;;3.25;;
77522;SDS011;66637;-29.628;-49.938;2023-03-14T14:46:27;25.08;;;3.53;;
77522;SDS011;66637;-29.628;-49.938;2023-03-14T14:49:18;28.70;;;4.50;;
77522;SDS011;66637;-29.628;-49.938;2023-03-14T14:52:18;25.98;;;3.65;;
77522;SDS011;66637;-29.628;-49.938;2023-03-14T14:55:31;25.05;;;3.35;;
77522;SDS011;66637;-29.628;-49.938;2023-03-14T14:58:20;23.38;;;3.50;;
77522;SDS011;66637;-29.628;-49.938;2023-03-14T15:01:07;29.60;;;4.55;;
77522;SDS011;66637;-29.628;-49.938;2023-03-14T15:04:10;38.45;;;4.82;;
77522;SDS011;66637;-29.628;-49.938;2023-03-14T15:07:02;29.63;;;3.40;;
77522;SDS011;66637;-29.628;-49.938;2023-03-14T15:09:47;28.95;;;4.65;;
77522;SDS011;66637;-29.628;-49.938;2023-03-14T15:12:40;22.33;;;3.60;;
77522;SDS011;66637;-29.628;-49.938;2023-03-14T15:15:47;20.95;;;3.60;;
77522;SDS011;66637;-29.628;-49.938;2023-03-14T15:18:47;27.45;;;3.60;;
77522;SDS011;66637;-29.628;-49.938;2023-03-14T15:22:00;22.02;;;3.05;;
77522;SDS011;66637;-29.628;-49.938;2023-03-14T15:24:50;26.88;;;3.28;;
77522;SDS011;66637;-29.628;-49.938;2023-03-14T15:27:30;28.65;;;3.80;;
77522;SDS011;66637;-29.628;-49.938;2023-03-14T15:33:33;27.63;;;3.78;;
77522;SDS011;66637;-29.628;-49.938;2023-03-14T15:36:36;22.60;;;3.40;;
77522;SDS011;66637;-29.628;-49.938;2023-03-14T15:39:22;25.65;;;3.28;;
77522;SDS011;66637;-29.628;-49.938;2023-03-14T15:42:22;31.77;;;4.78;;
77522;SDS011;66637;-29.628;-49.938;2023-03-14T15:45:14;22.15;;;3.28;;
77522;SDS011;66637;-29.628;-49.938;2023-03-14T15:47:54;28.98;;;4.10;;
77522;SDS011;66637;-29.628;-49.938;2023-03-14T15:50:38;28.33;;;3.55;;
77522;SDS011;66637;-29.628;-49.938;2023-03-14T15:53:23;30.60;;;3.90;;
77522;SDS011;66637;-29.628;-49.938;2023-03-14T15:56:09;24.35;;;3.63;;
77522;SDS011;66637;-29.628;-49.938;2023-03-14T15:58:51;25.17;;;3.97;;
77522;SDS011;66637;-29.628;-49.938;2023-03-14T16:01:46;26.67;;;3.65;;
77522;SDS011;66637;-29.628;-49.938;2023-03-14T16:04:53;24.92;;;3.42;;
77522;SDS011;66637;-29.628;-49.938;2023-03-14T16:07:30;27.08;;;4.03;;
77522;SDS011;66637;-29.628;-49.938;2023-03-14T16:10:25;21.98;;;3.45;;
77522;SDS011;66637;-29.628;-49.938;2023-03-14T16:13:12;29.40;;;4.72;;
77522;SDS011;66637;-29.628;-49.938;2023-03-14T16:16:00;28.48;;;4.13;;
77522;SDS011;66637;-29.628;-49.938;2023-03-14T16:18:53;39.40;;;4.45;;
77522;SDS011;66637;-29.628;-49.938;2023-03-14T16:21:42;21.92;;;3.60;;
77522;SDS011;66637;-29.628;-49.938;2023-03-14T16:24:36;21.30;;;3.33;;
77522;SDS011;66637;-29.628;-49.938;2023-03-14T16:27:38;37.17;;;4.50;;
77522;SDS011;66637;-29.628;-49.938;2023-03-14T16:30:19;25.98;;;4.00;;
77522;SDS011;66637;-29.628;-49.938;2023-03-14T16:33:14;31.02;;;4.20;;
77522;SDS011;66637;-29.628;-49.938;2023-03-14T16:35:56;22.70;;;4.00;;
77522;SDS011;66637;-29.628;-49.938;2023-03-14T16:38:46;22.35;;;3.08;;
77522;SDS011;66637;-29.628;-49.938;2023-03-14T16:41:23;34.47;;;5.00;;
77522;SDS011;66637;-29.628;-49.938;2023-03-14T16:44:17;28.17;;;3.50;;
77522;SDS011;66637;-29.628;-49.938;2023-03-14T16:46:53;42.13;;;5.65;;
77522;SDS011;66637;-29.628;-49.938;2023-03-14T16:49:41;36.30;;;6.10;;
77522;SDS011;66637;-29.628;-49.938;2023-03-14T16:52:20;40.67;;;5.07;;
77522;SDS011;66637;-29.628;-49.938;2023-03-14T16:55:00;34.13;;;4.57;;
77522;SDS011;66637;-29.628;-49.938;2023-03-14T16:57:50;25.05;;;3.92;;
77522;SDS011;66637;-29.628;-49.938;2023-03-14T17:00:29;29.02;;;3.80;;
77522;SDS011;66637;-29.628;-49.938;2023-03-14T17:03:16;26.70;;;3.53;;
77522;SDS011;66637;-29.628;-49.938;2023-03-14T17:06:10;22.30;;;3.63;;
77522;SDS011;66637;-29.628;-49.938;2023-03-14T17:09:18;21.20;;;3.13;;
77522;SDS011;66637;-29.628;-49.938;2023-03-14T17:12:10;25.20;;;4.25;;
77522;SDS011;66637;-29.628;-49.938;2023-03-14T17:14:52;24.90;;;3.70;;
77522;SDS011;66637;-29.628;-49.938;2023-03-14T17:18:03;35.47;;;5.05;;
77522;SDS011;66637;-29.628;-49.938;2023-03-14T17:21:00;29.42;;;4.47;;
77522;SDS011;66637;-29.628;-49.938;2023-03-14T17:24:24;29.52;;;4.38;;
77522;SDS011;66637;-29.628;-49.938;2023-03-14T17:27:09;38.72;;;4.95;;
77522;SDS011;66637;-29.628;-49.938;2023-03-14T17:29:42;29.52;;;3.85;;
77522;SDS011;66637;-29.628;-49.938;2023-03-14T17:32:21;25.65;;;3.30;;
77522;SDS011;66637;-29.628;-49.938;2023-03-14T17:35:05;24.23;;;3.58;;
77522;SDS011;66637;-29.628;-49.938;2023-03-14T17:37:47;32.88;;;4.00;;
77522;SDS011;66637;-29.628;-49.938;2023-03-14T17:40:22;35.80;;;4.45;;
77522;SDS011;66637;-29.628;-49.938;2023-03-14T17:43:11;30.58;;;4.00;;
77522;SDS011;66637;-29.628;-49.938;2023-03-14T17:45:46;28.25;;;4.55;;
77522;SDS011;66637;-29.628;-49.938;2023-03-14T17:48:36;21.10;;;3.63;;
77522;SDS011;66637;-29.628;-49.938;2023-03-14T17:51:26;29.85;;;4.00;;
77522;SDS011;66637;-29.628;-49.938;2023-03-14T17:54:39;21.58;;;3.22;;
77522;SDS011;66637;-29.628;-49.938;2023-03-14T17:57:29;29.90;;;4.35;;